Time;durP1;ratioP1;P1;durP2;ratioP2;P2;SDS_P1;SDS_P2;PMS_P1;PMS_P2;Temp;Humidity;BMP_temperature;BMP_pressure;BME280_temperature;BME280_humidity;BME280_pressure;Samples;Min_cycle;Max_cycle;Signal;HPM_P1;HPM_P2
2023/02/24 00:02:03;;;;;;;31.40;23.85;;;11.30;99.90;;;;;;4996827;28;20049;-93
2023/02/24 00:04:32;;;;;;;28.52;23.60;;;11.30;99.90;;;;;;4997048;28;20018;-94
2023/02/24 00:06:58;;;;;;;31.25;23.92;;;11.40;99.90;;;;;;5014062;28;20080;-95
2023/02/24 00:09:26;;;;;;;34.33;24.42;;;11.30;99.90;;;;;;5014011;28;20036;-94
2023/02/24 00:11:55;;;;;;;32.08;23.88;;;11.20;99.90;;;;;;4996602;28;20104;-94
2023/02/24 00:14:23;;;;;;;33.70;25.60;;;11.20;99.90;;;;;;5014411;28;20123;-94
2023/02/24 00:16:49;;;;;;;33.25;26.45;;;11.20;99.90;;;;;;5013955;28;20022;-94
2023/02/24 00:19:18;;;;;;;34.75;24.67;;;11.30;99.90;;;;;;5014290;28;20030;-94
2023/02/24 00:21:45;;;;;;;31.95;24.10;;;11.40;99.90;;;;;;5013846;28;20120;-94
2023/02/24 00:24:11;;;;;;;33.38;25.38;;;11.40;99.90;;;;;;5014380;28;20100;-93
2023/02/24 00:26:37;;;;;;;31.70;23.60;;;11.40;99.90;;;;;;5014951;28;20057;-93
2023/02/24 00:29:05;;;;;;;31.45;25.35;;;11.40;99.90;;;;;;5014479;28;20033;-94
2023/02/24 00:31:31;;;;;;;35.55;26.50;;;11.50;99.90;;;;;;5015028;28;20533;-93
2023/02/24 00:33:59;;;;;;;35.25;27.65;;;11.40;99.90;;;;;;4997230;28;20529;-94
2023/02/24 00:36:26;;;;;;;38.95;27.48;;;11.50;99.90;;;;;;5013738;28;20050;-94
2023/02/24 00:38:56;;;;;;;39.45;28.92;;;11.50;99.90;;;;;;5013794;28;20026;-94
2023/02/24 00:41:28;;;;;;;37.58;28.17;;;11.30;99.90;;;;;;5012948;28;20049;-93
2023/02/24 00:43:56;;;;;;;37.28;29.10;;;11.10;99.90;;;;;;5013405;28;20030;-94
2023/02/24 00:46:24;;;;;;;32.03;27.38;;;11.20;99.90;;;;;;5014333;28;20040;-94
2023/02/24 00:48:53;;;;;;;36.13;27.55;;;11.30;99.90;;;;;;5013962;28;20568;-94
2023/02/24 00:51:22;;;;;;;36.20;28.88;;;11.20;99.90;;;;;;5013722;28;20038;-94
2023/02/24 00:53:49;;;;;;;37.30;27.17;;;11.10;99.90;;;;;;5013687;28;20029;-94
2023/02/24 00:56:16;;;;;;;34.72;27.90;;;11.20;99.90;;;;;;5013799;28;20409;-94
2023/02/24 00:58:43;;;;;;;37.25;27.40;;;11.20;99.90;;;;;;5013454;28;20504;-92
2023/02/24 01:01:15;;;;;;;33.97;26.33;;;11.20;99.90;;;;;;5013898;28;20038;-93
2023/02/24 01:03:42;;;;;;;37.88;27.23;;;11.10;99.90;;;;;;5013484;28;20033;-93
2023/02/24 01:06:10;;;;;;;36.90;27.88;;;11.00;99.90;;;;;;5013368;28;20079;-93
2023/02/24 01:08:39;;;;;;;33.45;26.23;;;10.90;99.90;;;;;;5013722;28;20041;-93
2023/02/24 01:13:49;;;;;;;37.65;26.40;;;10.90;99.90;;;;;;5026092;28;20062;-94
2023/02/24 01:16:17;;;;;;;35.67;26.10;;;10.90;99.90;;;;;;5038417;28;20037;-93
2023/02/24 01:18:46;;;;;;;34.22;24.85;;;10.80;99.90;;;;;;5032167;28;20371;-93
2023/02/24 01:21:17;;;;;;;32.53;25.50;;;10.70;99.90;;;;;;5018062;28;20088;-93
2023/02/24 01:23:46;;;;;;;32.08;25.17;;;10.70;99.90;;;;;;5018147;28;20022;-93
2023/02/24 01:26:14;;;;;;;32.53;25.50;;;10.60;99.90;;;;;;5017044;28;20104;-93
2023/02/24 01:28:40;;;;;;;34.30;25.15;;;10.60;99.90;;;;;;5017329;28;20034;-93
2023/02/24 01:31:06;;;;;;;32.10;24.83;;;10.80;99.90;;;;;;5017207;28;20116;-94
2023/02/24 01:33:36;;;;;;;31.35;24.98;;;10.80;99.90;;;;;;5017662;28;20125;-93
2023/02/24 01:36:24;;;;;;;31.02;24.50;;;10.70;99.90;;;;;;5017000;28;20052;-94
2023/02/24 01:38:50;;;;;;;34.95;24.83;;;10.70;99.90;;;;;;5017120;28;20088;-93
2023/02/24 01:41:20;;;;;;;30.60;25.30;;;10.70;99.90;;;;;;5016701;28;20041;-93
2023/02/24 01:44:02;;;;;;;34.47;25.85;;;10.70;99.90;;;;;;5016983;28;20026;-94
2023/02/24 01:46:32;;;;;;;30.63;23.88;;;10.60;99.90;;;;;;5016597;28;20030;-93
2023/02/24 01:49:07;;;;;;;33.95;24.92;;;10.60;99.90;;;;;;4999453;28;20022;-94
2023/02/24 01:51:38;;;;;;;34.72;25.35;;;10.50;99.90;;;;;;5017048;28;20437;-93
2023/02/24 01:54:06;;;;;;;31.38;24.02;;;10.50;99.90;;;;;;5017859;28;20030;-94
2023/02/24 01:56:32;;;;;;;31.55;24.23;;;10.60;99.90;;;;;;5016316;28;20022;-94
2023/02/24 01:59:00;;;;;;;30.08;23.40;;;10.70;99.90;;;;;;5017744;28;20030;-94
2023/02/24 02:01:27;;;;;;;30.15;21.60;;;10.70;99.90;;;;;;5016873;28;20065;-93
2023/02/24 02:03:58;;;;;;;31.63;23.60;;;10.50;99.90;;;;;;5016683;28;20034;-93
2023/02/24 02:06:26;;;;;;;33.70;24.98;;;10.40;99.90;;;;;;5016892;28;20109;-93
2023/02/24 02:08:52;;;;;;;33.00;24.33;;;10.30;99.90;;;;;;4999200;28;20513;-94
2023/02/24 02:11:19;;;;;;;32.60;24.60;;;10.30;99.90;;;;;;4998740;28;20093;-93
2023/02/24 02:13:49;;;;;;;32.45;23.42;;;10.40;99.90;;;;;;5016620;28;20026;-94
2023/02/24 02:16:45;;;;;;;28.58;23.40;;;10.50;99.90;;;;;;4999171;28;20036;-95
2023/02/24 02:19:41;;;;;;;28.35;23.60;;;10.60;99.90;;;;;;5016199;28;20116;-94
2023/02/24 02:22:20;;;;;;;34.92;24.70;;;10.50;99.90;;;;;;4999071;28;20034;-94
2023/02/24 02:24:48;;;;;;;33.25;26.45;;;10.50;99.90;;;;;;5016273;28;20076;-94
2023/02/24 02:27:36;;;;;;;31.60;25.27;;;10.40;99.90;;;;;;5016268;28;20029;-94
2023/02/24 02:30:12;;;;;;;30.13;24.00;;;10.50;99.90;;;;;;5016325;28;20076;-94
2023/02/24 02:32:50;;;;;;;31.55;25.13;;;10.70;99.90;;;;;;5016098;28;20572;-94
2023/02/24 02:35:41;;;;;;;33.30;25.85;;;10.50;99.90;;;;;;5015821;28;20036;-94
2023/02/24 02:38:13;;;;;;;32.05;24.98;;;10.40;99.90;;;;;;4998345;28;20093;-94
2023/02/24 02:40:58;;;;;;;32.70;25.45;;;10.50;99.90;;;;;;4996337;28;20049;-94
2023/02/24 02:43:51;;;;;;;34.05;25.10;;;10.60;99.90;;;;;;4996437;28;20386;-95
2023/02/24 02:46:33;;;;;;;28.83;23.48;;;10.60;99.90;;;;;;4917189;29;20576;-93
2023/02/24 02:49:10;;;;;;;33.53;23.80;;;10.60;99.90;;;;;;4917708;29;20034;-93
2023/02/24 02:51:42;;;;;;;31.38;25.23;;;10.50;99.90;;;;;;4918101;29;20040;-93
2023/02/24 02:54:30;;;;;;;31.23;25.02;;;10.50;99.90;;;;;;4917340;29;20382;-93
2023/02/24 02:57:24;;;;;;;35.25;23.88;;;10.50;99.90;;;;;;4928897;29;20513;-93
2023/02/24 03:00:13;;;;;;;35.53;24.52;;;10.60;99.90;;;;;;4918708;29;20036;-93
2023/02/24 03:02:46;;;;;;;34.70;25.75;;;10.70;99.90;;;;;;4936221;29;20051;-93
2023/02/24 03:05:19;;;;;;;29.55;23.60;;;10.50;99.90;;;;;;4936205;29;20429;-93
2023/02/24 03:07:50;;;;;;;29.98;23.85;;;10.60;99.90;;;;;;4935989;29;20039;-94
2023/02/24 03:10:27;;;;;;;28.63;23.20;;;10.70;99.90;;;;;;4920249;29;20123;-95
2023/02/24 03:12:57;;;;;;;27.90;24.05;;;10.80;99.90;;;;;;4936355;29;20420;-93
2023/02/24 03:15:26;;;;;;;32.20;23.80;;;10.70;99.90;;;;;;4920229;29;20032;-94
2023/02/24 03:17:56;;;;;;;29.80;23.88;;;10.80;99.90;;;;;;4936122;29;20047;-94
2023/02/24 03:20:45;;;;;;;28.23;22.58;;;10.80;99.90;;;;;;4936162;29;20568;-94
2023/02/24 03:23:15;;;;;;;31.40;23.35;;;10.90;99.90;;;;;;4966191;28;20050;-93
2023/02/24 03:25:52;;;;;;;29.83;23.00;;;10.90;99.90;;;;;;4996354;28;20046;-93
2023/02/24 03:28:36;;;;;;;30.48;23.88;;;10.90;99.90;;;;;;4996048;28;20379;-94
2023/02/24 03:31:09;;;;;;;31.02;24.38;;;10.80;99.90;;;;;;4995159;28;20026;-93
2023/02/24 03:33:40;;;;;;;29.75;23.42;;;10.60;99.90;;;;;;4995274;28;20050;-94
2023/02/24 03:36:06;;;;;;;28.17;23.33;;;10.70;99.90;;;;;;4994813;28;20581;-95
2023/02/24 03:38:36;;;;;;;30.20;22.92;;;10.90;99.90;;;;;;4978057;28;20034;-93
2023/02/24 03:41:02;;;;;;;32.22;23.48;;;10.90;99.90;;;;;;4994950;28;20034;-94
2023/02/24 03:43:34;;;;;;;30.38;22.38;;;10.80;99.90;;;;;;4995431;28;20065;-94
2023/02/24 03:46:00;;;;;;;30.55;23.70;;;10.80;99.90;;;;;;4994927;28;20518;-94
2023/02/24 03:48:28;;;;;;;28.38;22.08;;;10.80;99.90;;;;;;4995004;28;20026;-94
2023/02/24 03:50:55;;;;;;;29.73;22.33;;;10.90;99.90;;;;;;4994828;28;20049;-94
2023/02/24 03:53:39;;;;;;;28.65;21.73;;;10.90;99.90;;;;;;4995461;28;20046;-93
2023/02/24 03:56:42;;;;;;;29.35;23.10;;;10.90;99.90;;;;;;5008502;28;20094;-94
2023/02/24 03:59:26;;;;;;;33.85;24.30;;;10.80;99.90;;;;;;5010506;28;20053;-93
2023/02/24 04:02:30;;;;;;;33.67;25.35;;;10.60;99.90;;;;;;5014654;28;20042;-94
2023/02/24 04:05:10;;;;;;;30.75;24.48;;;10.40;99.90;;;;;;4993449;28;20045;-93
2023/02/24 04:07:36;;;;;;;29.67;21.08;;;10.60;99.90;;;;;;5014347;28;20029;-94
2023/02/24 04:10:21;;;;;;;30.33;22.80;;;10.70;99.90;;;;;;5014696;28;20038;-93
2023/02/24 04:13:13;;;;;;;31.30;22.92;;;10.80;99.90;;;;;;5014472;28;20053;-93
2023/02/24 04:15:42;;;;;;;31.25;23.50;;;10.90;99.90;;;;;;5014662;28;20021;-93
2023/02/24 04:18:26;;;;;;;32.75;24.58;;;10.80;99.90;;;;;;5014470;28;20033;-93
2023/02/24 04:20:53;;;;;;;33.17;24.88;;;10.70;99.90;;;;;;5014088;28;20038;-94
2023/02/24 04:23:32;;;;;;;30.90;23.58;;;10.60;99.90;;;;;;4996989;28;20111;-94
2023/02/24 04:26:00;;;;;;;30.85;24.27;;;10.60;99.90;;;;;;5014549;28;20026;-94
2023/02/24 04:28:27;;;;;;;32.17;24.73;;;10.60;99.90;;;;;;4996574;28;20129;-94
2023/02/24 04:30:59;;;;;;;35.65;24.67;;;10.60;99.90;;;;;;5014563;28;20026;-94
2023/02/24 04:33:25;;;;;;;32.22;24.13;;;10.50;99.90;;;;;;5014381;28;20072;-94
2023/02/24 04:35:52;;;;;;;31.80;23.00;;;10.50;99.90;;;;;;5014568;28;20054;-93
2023/02/24 04:38:18;;;;;;;26.60;23.13;;;10.40;99.90;;;;;;5014339;28;20033;-93
2023/02/24 04:40:44;;;;;;;29.60;22.02;;;10.30;99.90;;;;;;5014328;28;20483;-94
2023/02/24 04:43:11;;;;;;;30.90;23.42;;;10.20;99.90;;;;;;4996858;28;20090;-94
2023/02/24 04:45:39;;;;;;;33.40;23.58;;;10.20;99.90;;;;;;5014098;28;20029;-92
2023/02/24 04:48:09;;;;;;;30.20;22.30;;;10.20;99.90;;;;;;5015167;28;20383;-93
2023/02/24 04:50:37;;;;;;;31.70;24.55;;;10.10;99.90;;;;;;5019189;28;20549;-95
2023/02/24 04:53:06;;;;;;;34.45;24.63;;;9.90;99.90;;;;;;5019352;28;20034;-94
2023/02/24 04:55:38;;;;;;;33.10;23.88;;;9.90;99.90;;;;;;5018842;28;20022;-92
2023/02/24 04:58:11;;;;;;;33.28;23.73;;;9.90;99.90;;;;;;5018244;28;20030;-93
2023/02/24 05:00:40;;;;;;;35.85;25.05;;;9.80;99.90;;;;;;5017727;28;20426;-94
2023/02/24 05:03:07;;;;;;;36.20;26.40;;;9.80;99.90;;;;;;5018455;28;20030;-94
2023/02/24 05:05:33;;;;;;;34.88;25.23;;;9.80;99.90;;;;;;5017518;28;20041;-94
2023/02/24 05:08:07;;;;;;;38.97;25.70;;;9.80;99.90;;;;;;5017730;28;20022;-94
2023/02/24 05:10:42;;;;;;;33.42;24.63;;;9.80;99.90;;;;;;5013174;28;20025;-94
2023/02/24 05:13:11;;;;;;;32.15;24.23;;;9.90;99.90;;;;;;5017108;28;20120;-94
2023/02/24 05:15:39;;;;;;;32.95;22.13;;;9.90;99.90;;;;;;5000503;28;20018;-94
2023/02/24 05:18:07;;;;;;;31.27;22.17;;;9.90;99.90;;;;;;5017121;28;20036;-94
2023/02/24 05:23:45;;;;;;;28.55;19.50;;;9.90;99.90;;;;;;4976845;28;20031;-94
2023/02/24 05:26:16;;;;;;;29.85;21.73;;;9.70;99.90;;;;;;4976617;28;20108;-92
2023/02/24 05:28:45;;;;;;;33.90;23.88;;;9.70;99.90;;;;;;4976635;28;20519;-94
2023/02/24 05:31:17;;;;;;;31.00;23.90;;;9.80;99.90;;;;;;4976775;28;20063;-94
2023/02/24 05:33:45;;;;;;;32.08;24.75;;;9.70;99.90;;;;;;4976232;28;20035;-93
2023/02/24 05:36:16;;;;;;;31.00;25.00;;;9.70;99.90;;;;;;4976500;28;20125;-94
2023/02/24 05:38:54;;;;;;;32.47;24.92;;;9.80;99.90;;;;;;4975255;28;20081;-92
2023/02/24 05:41:21;;;;;;;33.13;24.63;;;9.80;99.90;;;;;;4957381;29;20040;-94
2023/02/24 05:43:53;;;;;;;32.72;26.00;;;9.90;99.90;;;;;;4957968;29;20396;-94
2023/02/24 05:46:26;;;;;;;33.63;25.38;;;9.90;99.90;;;;;;4957254;29;20031;-95
2023/02/24 05:48:57;;;;;;;33.03;24.50;;;9.90;99.90;;;;;;4957461;29;20043;-94
2023/02/24 05:51:24;;;;;;;31.00;23.60;;;9.90;99.90;;;;;;4957297;28;20047;-92
2023/02/24 05:53:54;;;;;;;32.38;23.42;;;10.00;99.90;;;;;;4965639;28;20037;-94
2023/02/24 05:56:21;;;;;;;30.50;22.65;;;10.10;99.90;;;;;;4997864;28;20030;-93
2023/02/24 05:58:48;;;;;;;33.63;22.55;;;10.00;99.90;;;;;;4997185;28;20037;-94
2023/02/24 06:01:15;;;;;;;30.90;22.80;;;10.00;99.90;;;;;;4997277;28;20034;-94
2023/02/24 06:03:46;;;;;;;33.22;23.65;;;9.80;99.90;;;;;;4997995;28;20030;-93
2023/02/24 06:06:13;;;;;;;31.90;23.95;;;9.70;99.90;;;;;;4998145;28;20146;-93
2023/02/24 06:08:48;;;;;;;32.05;24.75;;;9.60;99.90;;;;;;4997514;28;20049;-93
2023/02/24 06:11:18;;;;;;;33.75;23.77;;;9.60;99.90;;;;;;4997519;28;20034;-94
2023/02/24 06:13:47;;;;;;;36.75;25.88;;;9.60;99.90;;;;;;4997904;28;20023;-93
2023/02/24 06:16:15;;;;;;;33.25;26.08;;;9.50;99.90;;;;;;4997246;28;20077;-93
2023/02/24 06:18:41;;;;;;;31.58;23.95;;;9.50;99.90;;;;;;4997996;28;20030;-95
2023/02/24 06:21:07;;;;;;;29.92;23.67;;;9.50;99.90;;;;;;4998049;28;20035;-93
2023/02/24 06:23:34;;;;;;;33.30;23.40;;;9.50;99.90;;;;;;4997694;28;20049;-93
2023/02/24 06:26:03;;;;;;;30.52;23.55;;;9.30;99.90;;;;;;4997369;28;20113;-94
2023/02/24 06:28:29;;;;;;;29.77;22.92;;;9.20;99.90;;;;;;4997295;28;20030;-93
2023/02/24 06:30:55;;;;;;;29.65;23.02;;;9.30;99.90;;;;;;4996950;28;20049;-93
2023/02/24 06:33:21;;;;;;;32.03;21.27;;;9.30;99.90;;;;;;4979645;28;20030;-93
2023/02/24 06:35:47;;;;;;;31.48;22.15;;;9.40;99.90;;;;;;4996723;28;20507;-93
2023/02/24 06:38:16;;;;;;;30.75;22.92;;;9.50;99.90;;;;;;4996394;28;20031;-94
2023/02/24 06:40:41;;;;;;;29.27;22.67;;;9.60;99.90;;;;;;4996567;28;20069;-93
2023/02/24 06:43:08;;;;;;;32.80;24.15;;;9.50;99.90;;;;;;4996466;28;20030;-93
2023/02/24 06:45:34;;;;;;;32.25;22.98;;;9.50;99.90;;;;;;4996021;28;20031;-94
2023/02/24 06:48:00;;;;;;;33.40;23.77;;;9.60;99.90;;;;;;4995889;28;20026;-92
2023/02/24 06:50:25;;;;;;;32.90;23.90;;;9.50;99.90;;;;;;4996115;28;20243;-91
2023/02/24 06:52:59;;;;;;;35.35;23.80;;;9.50;99.90;;;;;;4996068;28;20026;-93
2023/02/24 06:55:26;;;;;;;34.72;24.75;;;9.50;99.90;;;;;;5003582;28;20064;-93
2023/02/24 06:57:56;;;;;;;33.85;24.10;;;9.70;99.90;;;;;;5015410;28;20034;-93
2023/02/24 07:00:36;;;;;;;34.55;26.13;;;9.70;99.90;;;;;;5015220;28;20048;-93
2023/02/24 07:03:15;;;;;;;37.42;25.05;;;9.80;99.90;;;;;;5015751;28;20053;-94
2023/02/24 07:05:48;;;;;;;33.88;24.60;;;9.70;99.90;;;;;;5015682;28;20082;-93
2023/02/24 07:08:19;;;;;;;32.47;25.02;;;9.60;99.90;;;;;;5016109;28;20030;-93
2023/02/24 07:10:52;;;;;;;32.03;24.27;;;9.60;99.90;;;;;;5014543;28;20541;-93
2023/02/24 07:13:18;;;;;;;33.17;24.35;;;9.60;99.90;;;;;;5015247;28;20021;-93
2023/02/24 07:15:48;;;;;;;31.45;22.67;;;9.50;99.90;;;;;;5014744;28;20390;-93
2023/02/24 07:18:18;;;;;;;33.20;23.45;;;9.50;99.90;;;;;;5015200;28;20048;-93
2023/02/24 07:20:45;;;;;;;30.10;23.77;;;9.50;99.90;;;;;;5015592;28;20028;-92
2023/02/24 07:23:17;;;;;;;32.15;24.02;;;9.70;99.90;;;;;;5014531;28;20037;-92
2023/02/24 07:25:45;;;;;;;32.42;23.40;;;9.80;99.90;;;;;;5014453;28;20026;-92
2023/02/24 07:28:11;;;;;;;32.72;23.55;;;10.00;99.90;;;;;;5014743;28;20502;-92
2023/02/24 07:30:39;;;;;;;32.17;24.73;;;10.20;99.90;;;;;;4996682;28;20033;-91
2023/02/24 07:33:06;;;;;;;32.30;24.00;;;10.20;99.90;;;;;;4996742;28;20509;-92
2023/02/24 07:35:34;;;;;;;32.25;23.40;;;10.30;99.90;;;;;;5013846;28;20124;-92
2023/02/24 07:38:03;;;;;;;31.05;22.52;;;10.40;99.90;;;;;;5013987;28;20113;-92
2023/02/24 07:40:32;;;;;;;31.42;22.77;;;10.50;99.90;;;;;;4996511;28;20037;-92
2023/02/24 07:42:59;;;;;;;30.23;22.58;;;10.60;99.90;;;;;;5013592;28;20029;-92
2023/02/24 07:45:25;;;;;;;33.25;23.88;;;10.50;99.90;;;;;;4996768;28;20437;-92
2023/02/24 07:47:50;;;;;;;29.67;22.92;;;10.50;99.90;;;;;;5013969;28;20026;-92
2023/02/24 07:50:17;;;;;;;39.85;24.13;;;10.60;99.90;;;;;;5014158;28;20087;-92
2023/02/24 07:52:48;;;;;;;38.00;24.02;;;10.60;99.90;;;;;;5014309;28;20379;-92
2023/02/24 07:55:15;;;;;;;29.73;23.13;;;10.60;99.90;;;;;;5013633;28;20153;-92
2023/02/24 07:57:45;;;;;;;38.17;24.52;;;10.50;99.90;;;;;;4995771;28;20026;-93
2023/02/24 08:00:17;;;;;;;31.05;23.63;;;10.60;99.90;;;;;;5013740;28;20025;-92
2023/02/24 08:02:50;;;;;;;32.15;23.80;;;10.70;99.90;;;;;;5013850;28;20029;-92
2023/02/24 08:05:20;;;;;;;29.52;23.05;;;10.80;99.90;;;;;;5014293;28;20168;-91
2023/02/24 08:07:48;;;;;;;29.55;22.98;;;10.80;99.90;;;;;;5013700;28;20088;-92
2023/02/24 08:10:24;;;;;;;30.27;23.20;;;10.80;99.90;;;;;;5016275;28;20421;-92
2023/02/24 08:12:54;;;;;;;31.25;23.27;;;10.90;99.90;;;;;;5013605;28;20359;-92
2023/02/24 08:15:32;;;;;;;32.63;23.08;;;11.00;99.90;;;;;;5013528;28;20516;-92
2023/02/24 08:17:59;;;;;;;29.63;23.15;;;11.00;99.90;;;;;;5013788;28;20030;-92
2023/02/24 08:20:34;;;;;;;29.85;23.60;;;11.00;99.90;;;;;;5013749;28;20034;-92
2023/02/24 08:23:01;;;;;;;30.77;23.52;;;11.00;99.90;;;;;;5013611;28;20034;-93
2023/02/24 08:25:34;;;;;;;37.35;24.77;;;11.00;99.90;;;;;;5013584;28;20037;-92
2023/02/24 08:28:04;;;;;;;32.35;24.58;;;10.90;99.90;;;;;;5013367;28;20025;-92
2023/02/24 08:30:37;;;;;;;33.92;27.90;;;11.10;99.90;;;;;;5013266;28;20101;-92
2023/02/24 08:33:04;;;;;;;28.75;22.65;;;11.20;99.90;;;;;;5013372;28;20105;-92
2023/02/24 08:35:34;;;;;;;34.45;24.73;;;11.30;99.90;;;;;;5012884;28;20026;-92
2023/02/24 08:38:09;;;;;;;31.48;23.58;;;11.30;99.90;;;;;;5013222;28;20037;-92
2023/02/24 08:40:38;;;;;;;31.83;24.25;;;11.00;99.90;;;;;;5013332;28;20041;-92
2023/02/24 08:43:16;;;;;;;34.83;24.90;;;11.10;99.90;;;;;;5013179;28;20117;-92
2023/02/24 08:45:49;;;;;;;32.65;24.40;;;11.20;99.90;;;;;;5013091;28;20029;-92
2023/02/24 08:48:25;;;;;;;29.27;24.27;;;11.20;99.90;;;;;;5012992;28;20145;-91
2023/02/24 08:50:52;;;;;;;26.80;23.92;;;11.10;99.90;;;;;;4995729;28;20034;-92
2023/02/24 08:53:18;;;;;;;29.55;25.55;;;10.90;99.90;;;;;;5013353;28;20032;-91
2023/02/24 08:55:51;;;;;;;28.20;24.15;;;11.00;99.90;;;;;;5013285;28;20121;-92
2023/02/24 08:58:25;;;;;;;28.95;23.35;;;10.90;99.90;;;;;;5013022;28;20114;-92
2023/02/24 09:00:57;;;;;;;28.23;23.83;;;11.00;99.90;;;;;;5013026;28;20116;-92
2023/02/24 09:03:28;;;;;;;27.90;23.55;;;11.10;99.90;;;;;;5013171;28;20022;-92
2023/02/24 09:06:05;;;;;;;26.52;23.63;;;11.30;99.90;;;;;;4995518;28;20034;-92
2023/02/24 09:08:33;;;;;;;27.50;22.55;;;11.90;99.90;;;;;;4995659;28;20022;-92
2023/02/24 09:11:06;;;;;;;25.40;22.08;;;12.20;99.90;;;;;;5012558;28;20022;-91
2023/02/24 09:13:36;;;;;;;23.77;21.27;;;13.70;99.90;;;;;;5013167;28;20036;-92
2023/02/24 09:16:03;;;;;;;28.50;20.85;;;17.50;99.90;;;;;;5013492;28;20485;-92
2023/02/24 09:18:29;;;;;;;26.73;20.00;;;18.70;99.90;;;;;;4995545;28;20069;-92
2023/02/24 09:21:14;;;;;;;29.23;20.75;;;19.20;99.90;;;;;;4995172;28;20202;-92
2023/02/24 09:23:44;;;;;;;29.80;21.23;;;20.30;99.90;;;;;;4995435;28;20022;-92
2023/02/24 09:26:12;;;;;;;25.00;20.73;;;20.80;99.90;;;;;;5012832;28;20084;-92
2023/02/24 09:28:53;;;;;;;30.10;21.55;;;21.90;99.90;;;;;;5012707;28;20034;-93
2023/02/24 09:31:22;;;;;;;36.92;23.02;;;22.40;99.90;;;;;;5012812;28;20029;-92
2023/02/24 09:33:52;;;;;;;34.05;23.10;;;22.20;99.90;;;;;;5012977;28;20026;-92
2023/02/24 09:36:26;;;;;;;28.95;22.15;;;22.50;99.90;;;;;;5016308;28;20468;-92
2023/02/24 09:41:32;;;;;;;28.77;22.55;;;23.10;99.90;;;;;;5016291;28;20041;-92
2023/02/24 09:44:02;;;;;;;33.50;22.73;;;23.50;99.90;;;;;;5016196;28;20026;-93
2023/02/24 09:46:41;;;;;;;27.52;22.63;;;24.10;99.90;;;;;;5016018;28;20034;-92
2023/02/24 09:49:17;;;;;;;30.23;22.90;;;24.10;99.90;;;;;;5016010;28;20034;-92
2023/02/24 09:51:43;;;;;;;27.13;22.38;;;24.30;99.90;;;;;;4998725;28;20432;-92
2023/02/24 09:54:23;;;;;;;35.65;23.67;;;24.30;99.90;;;;;;5015785;28;20030;-92
2023/02/24 09:57:09;;;;;;;35.63;22.75;;;24.60;99.90;;;;;;4998277;28;20030;-93
2023/02/24 10:00:23;;;;;;;29.08;23.75;;;24.80;99.90;;;;;;5016293;28;20397;-92
2023/02/24 10:03:02;;;;;;;40.40;23.70;;;24.60;99.90;;;;;;5015678;28;20037;-93
2023/02/24 10:06:10;;;;;;;32.42;23.45;;;24.30;99.90;;;;;;4998339;28;20044;-92
2023/02/24 10:08:45;;;;;;;29.08;22.58;;;24.30;99.90;;;;;;4997967;28;20026;-92
2023/02/24 10:11:12;;;;;;;28.27;22.73;;;25.10;99.90;;;;;;5015575;28;20030;-93
2023/02/24 10:13:51;;;;;;;25.67;22.92;;;24.80;99.90;;;;;;5015384;28;20026;-92
2023/02/24 10:16:22;;;;;;;33.95;24.17;;;25.10;99.90;;;;;;5015426;28;20153;-93
2023/02/24 10:19:13;;;;;;;32.40;23.88;;;25.10;99.90;;;;;;5015279;28;20525;-93
2023/02/24 10:22:26;;;;;;;28.45;22.77;;;25.40;99.90;;;;;;5015367;28;20042;-94
2023/02/24 10:25:09;;;;;;;27.75;23.80;;;25.70;99.90;;;;;;5006130;28;20029;-93
2023/02/24 10:27:51;;;;;;;27.98;24.50;;;25.70;99.90;;;;;;5015151;28;20036;-92
2023/02/24 10:30:46;;;;;;;27.80;24.80;;;26.20;99.90;;;;;;5015535;28;20486;-93
2023/02/24 10:33:29;;;;;;;27.27;22.30;;;27.00;99.90;;;;;;5009095;28;20022;-92
2023/02/24 10:36:16;;;;;;;26.33;22.20;;;28.00;99.90;;;;;;5014974;28;20120;-92
2023/02/24 10:38:44;;;;;;;24.10;21.67;;;28.20;99.90;;;;;;4995272;28;20030;-93
2023/02/24 10:41:11;;;;;;;30.25;23.02;;;27.80;99.90;;;;;;4995205;28;20498;-93
2023/02/24 10:43:46;;;;;;;29.00;23.52;;;28.50;99.90;;;;;;4978132;28;20030;-93
2023/02/24 10:46:33;;;;;;;26.25;22.88;;;28.00;99.90;;;;;;4994512;28;20022;-93
2023/02/24 10:49:01;;;;;;;26.25;22.92;;;28.50;99.90;;;;;;4995640;28;20053;-93
2023/02/24 10:51:40;;;;;;;28.27;21.77;;;28.70;99.90;;;;;;4994915;28;20026;-93
2023/02/24 10:54:21;;;;;;;24.17;20.35;;;28.90;99.90;;;;;;4995362;28;20030;-93
2023/02/24 10:57:04;;;;;;;22.02;19.60;;;29.00;99.90;;;;;;5013542;28;20056;-93
2023/02/24 10:59:57;;;;;;;21.75;19.27;;;29.00;99.90;;;;;;5014468;28;20049;-93
2023/02/24 11:02:47;;;;;;;25.77;19.95;;;29.60;99.90;;;;;;5014427;28;20493;-93
2023/02/24 11:05:26;;;;;;;25.63;19.00;;;29.70;99.90;;;;;;5014280;28;20120;-93
2023/02/24 11:08:14;;;;;;;20.88;17.98;;;29.10;99.90;;;;;;4996646;28;20030;-93
2023/02/24 11:10:52;;;;;;;22.90;17.52;;;29.40;99.90;;;;;;5014600;28;20083;-94
2023/02/24 11:18:51;;;;;;;24.50;16.88;;;29.70;99.90;;;;;;5014153;28;20156;-93
2023/02/24 11:21:17;;;;;;;25.27;17.73;;;30.10;99.90;;;;;;5014200;28;20068;-93
2023/02/24 11:23:46;;;;;;;25.17;17.33;;;29.90;99.90;;;;;;5014100;28;20413;-93
2023/02/24 11:26:22;;;;;;;22.23;16.88;;;29.60;99.90;;;;;;5014143;28;20026;-93
2023/02/24 11:28:54;;;;;;;26.08;18.20;;;30.10;99.90;;;;;;5014082;28;20022;-93
2023/02/24 11:31:27;;;;;;;23.35;16.50;;;30.20;99.90;;;;;;5014144;28;20038;-93
2023/02/24 11:34:09;;;;;;;19.95;15.52;;;29.80;99.90;;;;;;5014145;28;20029;-93
2023/02/24 11:36:38;;;;;;;25.83;16.35;;;29.40;99.90;;;;;;4990671;28;20085;-92
2023/02/24 11:39:56;;;;;;;22.63;16.40;;;29.00;99.90;;;;;;4994137;28;20495;-94
2023/02/24 11:42:25;;;;;;;19.55;16.00;;;29.90;99.90;;;;;;4984871;28;20129;-93
2023/02/24 11:45:01;;;;;;;24.25;17.08;;;29.90;99.90;;;;;;4976776;28;20038;-93
2023/02/24 11:47:42;;;;;;;19.52;17.30;;;30.20;99.90;;;;;;4994049;28;20018;-92
2023/02/24 11:50:24;;;;;;;16.55;12.05;;;29.60;99.90;;;;;;4993739;28;20442;-93
2023/02/24 11:52:54;;;;;;;15.90;6.93;;;30.10;99.90;;;;;;4994046;28;20026;-93
2023/02/24 11:55:38;;;;;;;19.90;9.00;;;28.90;99.90;;;;;;5000685;28;20018;-93
2023/02/24 11:58:23;;;;;;;22.35;16.75;;;28.60;99.90;;;;;;5013325;28;20050;-93
2023/02/24 12:01:26;;;;;;;20.50;14.77;;;29.70;99.90;;;;;;5013581;28;20092;-93
2023/02/24 12:04:16;;;;;;;17.92;6.40;;;28.80;99.90;;;;;;4914690;29;20059;-93
2023/02/24 12:06:58;;;;;;;16.90;6.43;;;27.40;99.90;;;;;;4915556;29;20458;-93
2023/02/24 12:09:33;;;;;;;14.20;6.03;;;26.00;99.90;;;;;;4915193;29;20035;-93
2023/02/24 12:12:10;;;;;;;19.33;6.47;;;27.00;99.90;;;;;;4914826;29;20028;-93
2023/02/24 12:14:41;;;;;;;15.50;6.00;;;27.90;99.90;;;;;;4914827;29;20044;-93
2023/02/24 12:17:09;;;;;;;15.25;6.13;;;28.70;99.90;;;;;;4899197;29;20028;-93
2023/02/24 12:19:58;;;;;;;19.60;6.03;;;29.50;99.90;;;;;;4915082;29;20056;-93
2023/02/24 12:22:32;;;;;;;16.85;6.35;;;30.20;99.90;;;;;;4907385;29;20088;-93
2023/02/24 12:24:57;;;;;;;19.60;5.88;;;29.80;99.90;;;;;;4898847;29;20028;-93
2023/02/24 12:27:47;;;;;;;14.55;5.57;;;29.60;99.90;;;;;;4914646;29;20099;-93
2023/02/24 12:30:34;;;;;;;14.63;6.15;;;29.70;99.90;;;;;;4914540;29;20028;-93
2023/02/24 12:33:26;;;;;;;15.40;5.95;;;28.90;99.90;;;;;;4914057;29;20044;-93
2023/02/24 12:35:58;;;;;;;12.68;5.68;;;28.10;99.90;;;;;;4914113;29;20054;-93
2023/02/24 12:38:40;;;;;;;17.10;5.47;;;27.90;99.90;;;;;;4923618;28;20036;-93
2023/02/24 12:41:11;;;;;;;11.18;5.60;;;26.60;99.90;;;;;;5012889;28;20040;-93
2023/02/24 12:44:00;;;;;;;18.92;5.97;;;25.30;99.90;;;;;;5014101;28;20034;-93
2023/02/24 12:46:32;;;;;;;14.35;5.40;;;25.20;99.90;;;;;;5012539;28;20548;-93
2023/02/24 12:49:21;;;;;;;15.50;5.35;;;27.00;99.90;;;;;;5011452;28;20496;-93
2023/02/24 12:51:55;;;;;;;16.83;5.53;;;25.40;99.90;;;;;;5008418;28;20489;-92
2023/02/24 12:54:44;;;;;;;15.75;5.38;;;23.60;99.90;;;;;;4975318;28;20052;-91
2023/02/24 12:57:19;;;;;;;19.10;6.22;;;22.40;99.90;;;;;;4997872;28;20027;-92
2023/02/24 12:59:45;;;;;;;18.20;6.35;;;21.80;99.90;;;;;;4998769;28;20022;-92
2023/02/24 13:02:35;;;;;;;12.52;5.50;;;21.70;99.90;;;;;;4993818;28;20043;-90
2023/02/24 13:05:20;;;;;;;12.15;5.15;;;21.30;99.90;;;;;;4992995;28;20027;-92
2023/02/24 13:07:52;;;;;;;13.55;5.40;;;21.00;99.90;;;;;;4991885;28;20108;-92
2023/02/24 13:10:43;;;;;;;18.30;5.95;;;20.60;99.90;;;;;;4999747;28;20030;-91
2023/02/24 13:13:39;;;;;;;19.38;5.75;;;20.30;99.90;;;;;;4996412;28;20030;-92
2023/02/24 13:16:05;;;;;;;17.45;5.63;;;20.00;99.90;;;;;;4995768;28;20029;-92
2023/02/24 13:18:35;;;;;;;18.60;5.82;;;20.10;99.90;;;;;;4996052;28;20034;-91